Time;durP1;ratioP1;P1;durP2;ratioP2;P2;SDS_P1;SDS_P2;PMS_P1;PMS_P2;Temp;Humidity;BMP_temperature;BMP_pressure;BME280_temperature;BME280_humidity;BME280_pressure;Samples;Min_cycle;Max_cycle;Signal;HPM_P1;HPM_P2
2023/07/23 00:00:08;;;;;;;12.00;9.30;;;;;;;;;;6227121;23;20421;-80
2023/07/23 00:02:35;;;;;;;16.60;10.27;;;;;;;;;;6228175;23;20441;-80
2023/07/23 00:05:02;;;;;;;14.27;10.63;;;;;;;;;;6224652;23;20395;-79
2023/07/23 00:07:30;;;;;;;13.33;10.70;;;;;;;;;;6232555;23;20418;-79
2023/07/23 00:09:58;;;;;;;13.60;10.37;;;;;;;;;;6226570;23;20418;-80
2023/07/23 00:12:28;;;;;;;12.90;11.20;;;;;;;;;;6230399;23;20418;-80
2023/07/23 00:15:01;;;;;;;12.83;11.20;;;;;;;;;;6226392;23;20462;-81
2023/07/23 00:17:28;;;;;;;15.50;11.13;;;;;;;;;;6230174;23;20706;-80
2023/07/23 00:19:56;;;;;;;16.30;12.70;;;;;;;;;;6227726;23;20391;-83
2023/07/23 00:22:23;;;;;;;15.53;11.00;;;;;;;;;;6228952;23;20418;-82
2023/07/23 00:24:56;;;;;;;14.60;11.43;;;;;;;;;;6228661;23;20410;-82
2023/07/23 00:27:25;;;;;;;13.23;11.03;;;;;;;;;;6227347;23;20394;-83
2023/07/23 00:29:52;;;;;;;16.70;11.10;;;;;;;;;;6228195;23;20425;-83
2023/07/23 00:32:19;;;;;;;14.10;11.50;;;;;;;;;;6226845;23;20401;-82
2023/07/23 00:34:47;;;;;;;14.70;11.47;;;;;;;;;;6228840;23;20414;-80
2023/07/23 00:37:14;;;;;;;13.27;11.87;;;;;;;;;;6227099;23;20395;-81
2023/07/23 00:39:42;;;;;;;11.30;9.97;;;;;;;;;;6229067;23;20386;-82
2023/07/23 00:42:09;;;;;;;13.87;11.20;;;;;;;;;;6231034;23;20836;-80
2023/07/23 00:44:38;;;;;;;15.40;11.70;;;;;;;;;;6230815;23;20410;-82
2023/07/23 00:47:07;;;;;;;15.30;10.20;;;;;;;;;;6230180;23;20432;-82
2023/07/23 00:49:34;;;;;;;15.03;11.20;;;;;;;;;;6229373;23;20406;-82
2023/07/23 00:52:01;;;;;;;17.53;11.53;;;;;;;;;;6231678;23;20398;-82
2023/07/23 00:54:29;;;;;;;18.70;11.60;;;;;;;;;;6229256;23;20401;-83
2023/07/23 00:56:57;;;;;;;13.90;11.47;;;;;;;;;;6226250;23;20431;-82
2023/07/23 00:59:24;;;;;;;15.70;11.80;;;;;;;;;;6224588;23;20492;-81
2023/07/23 01:01:53;;;;;;;13.33;11.90;;;;;;;;;;6227323;23;20444;-81
2023/07/23 01:04:21;;;;;;;14.13;11.30;;;;;;;;;;6224377;23;20410;-82
2023/07/23 01:06:49;;;;;;;14.53;11.03;;;;;;;;;;6229216;23;20387;-80
2023/07/23 01:09:17;;;;;;;17.03;11.07;;;;;;;;;;6224584;23;20713;-80
2023/07/23 01:11:45;;;;;;;12.80;11.40;;;;;;;;;;6228988;23;20390;-83
2023/07/23 01:14:12;;;;;;;14.07;11.00;;;;;;;;;;6228530;23;20394;-81
2023/07/23 01:16:40;;;;;;;15.43;11.67;;;;;;;;;;6228805;23;20418;-80
2023/07/23 01:19:10;;;;;;;14.07;10.87;;;;;;;;;;6223418;23;20422;-81
2023/07/23 01:21:38;;;;;;;15.17;10.97;;;;;;;;;;6227875;23;20402;-80
2023/07/23 01:24:08;;;;;;;12.40;10.50;;;;;;;;;;6225122;23;20604;-81
2023/07/23 01:26:38;;;;;;;15.70;11.00;;;;;;;;;;6227287;23;20402;-80
2023/07/23 01:29:05;;;;;;;13.30;10.80;;;;;;;;;;6228180;23;20411;-82
2023/07/23 01:31:32;;;;;;;11.57;9.97;;;;;;;;;;6225669;23;20476;-79
2023/07/23 01:34:01;;;;;;;13.40;11.27;;;;;;;;;;6228303;23;20401;-81
2023/07/23 01:36:28;;;;;;;12.93;10.20;;;;;;;;;;6226580;23;20464;-82
2023/07/23 01:38:55;;;;;;;13.57;11.13;;;;;;;;;;6224807;23;20426;-81
2023/07/23 01:41:31;;;;;;;12.93;10.33;;;;;;;;;;6230318;23;20410;-81
2023/07/23 01:44:01;;;;;;;19.97;10.70;;;;;;;;;;6226087;23;20450;-82
2023/07/23 01:46:29;;;;;;;13.20;11.00;;;;;;;;;;6232237;23;20394;-80
2023/07/23 01:48:56;;;;;;;14.33;9.97;;;;;;;;;;6226267;23;20390;-78
2023/07/23 01:51:23;;;;;;;12.60;10.30;;;;;;;;;;6230696;23;20424;-80
2023/07/23 01:53:52;;;;;;;14.37;10.27;;;;;;;;;;6230455;23;20410;-80
2023/07/23 01:56:21;;;;;;;14.00;11.00;;;;;;;;;;6228132;23;20890;-81
2023/07/23 01:58:49;;;;;;;17.97;11.10;;;;;;;;;;6227706;23;20420;-80
2023/07/23 02:01:18;;;;;;;13.97;10.70;;;;;;;;;;6229445;23;20823;-79
2023/07/23 02:03:45;;;;;;;12.30;9.80;;;;;;;;;;6229924;23;20410;-83
2023/07/23 02:06:12;;;;;;;12.10;10.77;;;;;;;;;;6231242;23;20409;-81
2023/07/23 02:08:40;;;;;;;12.90;10.00;;;;;;;;;;6228103;23;20414;-80
2023/07/23 02:11:07;;;;;;;17.17;11.00;;;;;;;;;;6226343;23;20414;-81
2023/07/23 02:13:34;;;;;;;11.90;9.87;;;;;;;;;;6229827;23;20389;-81
2023/07/23 02:16:03;;;;;;;18.17;10.30;;;;;;;;;;6226377;23;20464;-80
2023/07/23 02:18:31;;;;;;;14.87;10.23;;;;;;;;;;6226594;23;20422;-82
2023/07/23 02:20:58;;;;;;;12.30;9.63;;;;;;;;;;6226646;23;20449;-81
2023/07/23 02:23:25;;;;;;;11.70;10.20;;;;;;;;;;6226178;23;20418;-82
2023/07/23 02:25:53;;;;;;;15.90;11.00;;;;;;;;;;6227347;23;20411;-81
2023/07/23 02:28:20;;;;;;;14.00;9.73;;;;;;;;;;6226765;23;20413;-81
2023/07/23 02:30:47;;;;;;;10.90;9.40;;;;;;;;;;6228760;23;20402;-81
2023/07/23 02:33:16;;;;;;;11.80;10.00;;;;;;;;;;6227018;23;20425;-82
2023/07/23 02:35:44;;;;;;;14.07;10.57;;;;;;;;;;6226920;23;20442;-82
2023/07/23 02:38:13;;;;;;;10.47;9.37;;;;;;;;;;6229267;23;20521;-81
2023/07/23 02:40:41;;;;;;;14.37;9.03;;;;;;;;;;6228730;23;20429;-80
2023/07/23 02:43:12;;;;;;;11.00;9.83;;;;;;;;;;6232049;23;20414;-80
2023/07/23 02:45:39;;;;;;;13.83;8.83;;;;;;;;;;6228557;23;20421;-80
2023/07/23 02:48:08;;;;;;;14.27;10.77;;;;;;;;;;6233648;23;20410;-80
2023/07/23 02:50:51;;;;;;;13.10;9.07;;;;;;;;;;6228097;23;20422;-81
2023/07/23 02:53:20;;;;;;;10.87;8.60;;;;;;;;;;6230793;23;20378;-82
2023/07/23 02:55:50;;;;;;;15.07;9.30;;;;;;;;;;6225792;23;20426;-82
2023/07/23 02:58:20;;;;;;;11.53;9.20;;;;;;;;;;6230080;23;20409;-80
2023/07/23 03:00:48;;;;;;;14.43;8.83;;;;;;;;;;6225425;23;20920;-82
2023/07/23 03:03:15;;;;;;;13.80;9.60;;;;;;;;;;6229866;23;20422;-81
2023/07/23 03:05:43;;;;;;;10.77;9.50;;;;;;;;;;6226784;23;20691;-80
2023/07/23 03:08:11;;;;;;;10.23;9.10;;;;;;;;;;6229954;23;20391;-81
2023/07/23 03:10:44;;;;;;;11.77;9.20;;;;;;;;;;6229549;23;20390;-81
2023/07/23 03:13:12;;;;;;;10.87;8.83;;;;;;;;;;6229004;23;20434;-81
2023/07/23 03:15:42;;;;;;;11.37;8.47;;;;;;;;;;6231412;23;20417;-82
2023/07/23 03:18:09;;;;;;;10.77;9.50;;;;;;;;;;6227880;23;20697;-81
2023/07/23 03:20:37;;;;;;;12.77;9.33;;;;;;;;;;6233751;23;20489;-81
2023/07/23 03:23:04;;;;;;;15.03;10.10;;;;;;;;;;6228516;23;20394;-82
2023/07/23 03:25:31;;;;;;;13.10;8.40;;;;;;;;;;6233196;23;20486;-81
2023/07/23 03:28:00;;;;;;;11.40;8.27;;;;;;;;;;6229879;23;20482;-82
2023/07/23 03:30:27;;;;;;;14.13;9.70;;;;;;;;;;6233052;23;20402;-82
2023/07/23 03:32:55;;;;;;;9.67;8.53;;;;;;;;;;6233122;23;20414;-80
2023/07/23 03:35:23;;;;;;;12.77;9.73;;;;;;;;;;6231285;23;20413;-81
2023/07/23 03:37:50;;;;;;;9.53;8.53;;;;;;;;;;6232254;23;20433;-82
2023/07/23 03:40:17;;;;;;;11.80;9.50;;;;;;;;;;6231438;23;20505;-80
2023/07/23 03:42:45;;;;;;;14.70;9.50;;;;;;;;;;6233713;23;20405;-82
2023/07/23 03:45:16;;;;;;;12.03;8.53;;;;;;;;;;6230615;23;20709;-80
2023/07/23 03:47:43;;;;;;;9.73;7.97;;;;;;;;;;6233597;23;20418;-81
2023/07/23 03:50:18;;;;;;;10.33;8.23;;;;;;;;;;6230569;23;20401;-79
2023/07/23 03:52:46;;;;;;;12.37;8.87;;;;;;;;;;6231781;23;20406;-81
2023/07/23 03:55:13;;;;;;;9.17;8.27;;;;;;;;;;6230536;23;20446;-81
2023/07/23 03:57:41;;;;;;;11.80;8.03;;;;;;;;;;6232007;23;20484;-80
2023/07/23 04:00:09;;;;;;;10.53;8.30;;;;;;;;;;6233161;23;20446;-80
2023/07/23 04:02:39;;;;;;;12.27;8.10;;;;;;;;;;6228729;23;20435;-81
2023/07/23 04:05:06;;;;;;;12.67;9.03;;;;;;;;;;6229508;23;20426;-81
2023/07/23 04:10:13;;;;;;;11.00;8.40;;;;;;;;;;6195580;23;20478;-75
2023/07/23 04:12:45;;;;;;;10.83;8.77;;;;;;;;;;6193228;23;20831;-75
2023/07/23 04:15:12;;;;;;;10.23;8.13;;;;;;;;;;6195801;23;20396;-76
2023/07/23 04:17:42;;;;;;;9.57;8.17;;;;;;;;;;6190624;23;20450;-75
2023/07/23 04:20:10;;;;;;;13.67;8.43;;;;;;;;;;6193652;23;20415;-76
2023/07/23 04:22:37;;;;;;;11.97;8.90;;;;;;;;;;6197313;23;20462;-77
2023/07/23 04:25:08;;;;;;;11.93;7.53;;;;;;;;;;6220567;23;20398;-76
2023/07/23 04:27:36;;;;;;;9.43;8.30;;;;;;;;;;6220348;23;20391;-75
2023/07/23 04:30:16;;;;;;;15.90;9.53;;;;;;;;;;6220831;23;20415;-76
2023/07/23 04:32:45;;;;;;;11.53;8.60;;;;;;;;;;6224526;23;20489;-76
2023/07/23 04:35:13;;;;;;;12.97;9.13;;;;;;;;;;6221716;23;20845;-76
2023/07/23 04:37:43;;;;;;;11.90;7.70;;;;;;;;;;6224612;23;20715;-76
2023/07/23 04:40:18;;;;;;;9.67;7.43;;;;;;;;;;6223398;23;20680;-77
2023/07/23 04:42:45;;;;;;;11.63;7.70;;;;;;;;;;6222036;23;20681;-76
2023/07/23 04:45:13;;;;;;;8.90;7.20;;;;;;;;;;6223185;23;20418;-76
2023/07/23 04:47:43;;;;;;;9.87;6.90;;;;;;;;;;6225901;23;20700;-77
2023/07/23 04:50:13;;;;;;;9.07;6.27;;;;;;;;;;6223603;23;20800;-77
2023/07/23 04:52:42;;;;;;;13.20;8.17;;;;;;;;;;6226148;23;20417;-77
2023/07/23 04:55:14;;;;;;;8.77;7.57;;;;;;;;;;6222508;23;20433;-76
2023/07/23 04:57:44;;;;;;;9.13;6.90;;;;;;;;;;6222381;23;20445;-76
2023/07/23 05:00:23;;;;;;;9.47;6.90;;;;;;;;;;6227284;23;20421;-77
2023/07/23 05:02:54;;;;;;;10.20;6.80;;;;;;;;;;6222598;23;20410;-77
2023/07/23 05:05:46;;;;;;;9.40;6.77;;;;;;;;;;6228120;23;20416;-78
2023/07/23 05:08:20;;;;;;;20.10;7.60;;;;;;;;;;6110222;23;20752;-77
2023/07/23 05:10:49;;;;;;;9.70;7.03;;;;;;;;;;6223257;23;20481;-76
2023/07/23 05:13:19;;;;;;;8.37;6.50;;;;;;;;;;6220707;23;20441;-76
2023/07/23 05:15:47;;;;;;;14.40;7.17;;;;;;;;;;6218545;23;20422;-76
2023/07/23 05:18:15;;;;;;;10.13;7.53;;;;;;;;;;6223487;23;20458;-76
2023/07/23 05:20:43;;;;;;;8.60;6.83;;;;;;;;;;6219922;23;20402;-75
2023/07/23 05:23:17;;;;;;;12.37;7.90;;;;;;;;;;6225530;23;20418;-76
2023/07/23 05:25:53;;;;;;;8.70;6.63;;;;;;;;;;6219957;23;20424;-76
2023/07/23 05:28:23;;;;;;;7.70;6.73;;;;;;;;;;6221325;23;20394;-74
2023/07/23 05:31:03;;;;;;;9.70;7.40;;;;;;;;;;6224197;23;20394;-76
2023/07/23 05:33:33;;;;;;;10.37;6.43;;;;;;;;;;6224938;23;20497;-76
2023/07/23 05:36:32;;;;;;;8.83;6.63;;;;;;;;;;6225604;23;20418;-76
2023/07/23 05:39:18;;;;;;;9.90;6.37;;;;;;;;;;6224855;23;20485;-76
2023/07/23 05:41:47;;;;;;;8.80;6.50;;;;;;;;;;6223351;23;20450;-82
2023/07/23 05:44:15;;;;;;;8.77;6.70;;;;;;;;;;6229223;23;20395;-80
2023/07/23 05:46:42;;;;;;;7.30;6.47;;;;;;;;;;6231205;23;20398;-82
2023/07/23 05:49:10;;;;;;;9.17;6.80;;;;;;;;;;6227886;23;20413;-82
2023/07/23 05:51:38;;;;;;;9.83;6.80;;;;;;;;;;6229151;23;20409;-79
2023/07/23 05:54:08;;;;;;;9.23;7.03;;;;;;;;;;6229623;23;20410;-81
2023/07/23 05:56:38;;;;;;;8.63;7.50;;;;;;;;;;6229789;23;20627;-79
2023/07/23 05:59:12;;;;;;;8.70;7.17;;;;;;;;;;6230389;23;20505;-81
2023/07/23 06:01:39;;;;;;;9.90;6.73;;;;;;;;;;6229325;23;20429;-79
2023/07/23 06:04:09;;;;;;;8.73;7.07;;;;;;;;;;6230969;23;20410;-78
2023/07/23 06:06:38;;;;;;;7.80;6.90;;;;;;;;;;6229628;23;20414;-81
2023/07/23 06:09:08;;;;;;;10.33;7.20;;;;;;;;;;6228638;23;20418;-79
2023/07/23 06:11:39;;;;;;;11.93;8.60;;;;;;;;;;6232208;23;20425;-80
2023/07/23 06:14:11;;;;;;;9.10;7.70;;;;;;;;;;6228312;23;20391;-80
2023/07/23 06:16:45;;;;;;;9.07;6.70;;;;;;;;;;6227472;23;20450;-82
2023/07/23 06:19:22;;;;;;;9.60;7.23;;;;;;;;;;6229579;23;20482;-82
2023/07/23 06:21:50;;;;;;;11.00;7.23;;;;;;;;;;6230744;23;20820;-80
2023/07/23 06:24:18;;;;;;;9.13;8.20;;;;;;;;;;6229151;23;20421;-79
2023/07/23 06:26:45;;;;;;;11.00;7.20;;;;;;;;;;6227072;23;20390;-80
2023/07/23 06:29:14;;;;;;;10.43;8.70;;;;;;;;;;6227340;23;20867;-81
2023/07/23 06:31:42;;;;;;;9.13;7.13;;;;;;;;;;6228974;23;20422;-80
2023/07/23 06:34:10;;;;;;;11.23;7.30;;;;;;;;;;6228295;23;20424;-81
2023/07/23 06:36:37;;;;;;;8.30;7.40;;;;;;;;;;6230318;23;20410;-79
2023/07/23 06:39:05;;;;;;;9.33;6.97;;;;;;;;;;6226473;23;20414;-80
2023/07/23 06:41:32;;;;;;;9.70;7.43;;;;;;;;;;6228106;23;20437;-79
2023/07/23 06:44:01;;;;;;;12.73;7.50;;;;;;;;;;6228612;23;20430;-83
2023/07/23 06:46:31;;;;;;;9.67;7.47;;;;;;;;;;6228888;23;20410;-83
2023/07/23 06:48:58;;;;;;;12.47;7.27;;;;;;;;;;6228158;23;20414;-82
2023/07/23 06:51:26;;;;;;;10.37;7.97;;;;;;;;;;6228922;23;20689;-81
2023/07/23 06:53:53;;;;;;;12.17;7.97;;;;;;;;;;6228224;23;20602;-81
2023/07/23 06:56:21;;;;;;;16.23;7.93;;;;;;;;;;6228564;23;20452;-79
2023/07/23 06:58:48;;;;;;;11.70;7.63;;;;;;;;;;6228155;23;20493;-78
2023/07/23 07:01:16;;;;;;;10.37;7.60;;;;;;;;;;6226243;23;20838;-79
2023/07/23 07:03:45;;;;;;;12.60;8.57;;;;;;;;;;6229228;23;20450;-80
2023/07/23 07:06:12;;;;;;;8.77;7.50;;;;;;;;;;6226326;23;20414;-79
2023/07/23 07:08:41;;;;;;;9.23;7.50;;;;;;;;;;6230353;23;20410;-80
2023/07/23 07:11:10;;;;;;;7.83;6.77;;;;;;;;;;6230081;23;20505;-80
2023/07/23 07:13:39;;;;;;;9.77;7.70;;;;;;;;;;6228008;23;20671;-79
2023/07/23 07:16:10;;;;;;;10.27;7.50;;;;;;;;;;6231168;23;20418;-80
2023/07/23 07:18:37;;;;;;;8.97;7.30;;;;;;;;;;6229466;23;20442;-80
2023/07/23 07:21:06;;;;;;;9.57;8.00;;;;;;;;;;6228245;23;20421;-80
2023/07/23 07:23:36;;;;;;;10.40;7.77;;;;;;;;;;6225609;23;20414;-79
2023/07/23 07:26:04;;;;;;;13.83;9.10;;;;;;;;;;6225802;23;20913;-80
2023/07/23 07:28:35;;;;;;;11.87;8.10;;;;;;;;;;6228956;23;20421;-80
2023/07/23 07:31:03;;;;;;;12.83;8.13;;;;;;;;;;6226098;23;20484;-80
2023/07/23 07:33:31;;;;;;;13.83;9.70;;;;;;;;;;6229722;23;20414;-81
2023/07/23 07:35:59;;;;;;;11.93;8.13;;;;;;;;;;6227631;23;20433;-79
2023/07/23 07:38:28;;;;;;;10.37;8.20;;;;;;;;;;6228107;23;20445;-80
2023/07/23 07:40:57;;;;;;;10.93;8.20;;;;;;;;;;6229479;23;20394;-81
2023/07/23 07:43:25;;;;;;;10.37;7.80;;;;;;;;;;6227581;23;20442;-82
2023/07/23 07:45:59;;;;;;;13.40;7.43;;;;;;;;;;6229784;23;20437;-82
2023/07/23 07:48:27;;;;;;;12.17;7.77;;;;;;;;;;6229547;23;20418;-81
2023/07/23 07:51:00;;;;;;;11.10;9.00;;;;;;;;;;6227909;23;20419;-82
2023/07/23 07:53:32;;;;;;;11.57;8.90;;;;;;;;;;6227031;23;20504;-82
2023/07/23 07:56:00;;;;;;;10.73;8.00;;;;;;;;;;6224903;23;20787;-81
2023/07/23 07:58:28;;;;;;;9.80;8.20;;;;;;;;;;6223673;23;20476;-82
2023/07/23 08:00:56;;;;;;;11.03;8.43;;;;;;;;;;6224673;23;20418;-80
2023/07/23 08:03:25;;;;;;;10.60;8.20;;;;;;;;;;6233633;23;20412;-80
2023/07/23 08:05:55;;;;;;;11.33;8.33;;;;;;;;;;6229873;23;20422;-82
2023/07/23 08:08:35;;;;;;;11.20;8.33;;;;;;;;;;6226052;23;20420;-80
2023/07/23 08:11:04;;;;;;;12.07;9.87;;;;;;;;;;6226080;23;20420;-80
2023/07/23 08:13:42;;;;;;;11.30;7.93;;;;;;;;;;6224690;23;20774;-81
2023/07/23 08:16:18;;;;;;;18.50;11.73;;;;;;;;;;6225052;23;20390;-80
2023/07/23 08:18:48;;;;;;;15.63;9.27;;;;;;;;;;6227891;23;20453;-80
2023/07/23 08:21:17;;;;;;;12.23;8.50;;;;;;;;;;6225600;23;20449;-80
2023/07/23 08:23:46;;;;;;;15.00;8.57;;;;;;;;;;6226563;23;20422;-80
2023/07/23 08:26:22;;;;;;;12.77;9.10;;;;;;;;;;6222317;23;20756;-79
2023/07/23 08:28:57;;;;;;;8.30;7.37;;;;;;;;;;6225909;23;20417;-81
2023/07/23 08:31:26;;;;;;;11.07;7.23;;;;;;;;;;6222097;23;20421;-80
2023/07/23 08:33:54;;;;;;;11.30;8.57;;;;;;;;;;6221749;23;20454;-80
2023/07/23 08:36:26;;;;;;;9.40;7.57;;;;;;;;;;6229099;23;20456;-79
2023/07/23 08:39:06;;;;;;;12.80;8.43;;;;;;;;;;6224837;23;20723;-80
2023/07/23 08:41:37;;;;;;;12.93;9.03;;;;;;;;;;6222512;23;20567;-82
2023/07/23 08:44:29;;;;;;;10.50;8.27;;;;;;;;;;6219944;23;20390;-81
2023/07/23 08:47:03;;;;;;;8.63;7.00;;;;;;;;;;6223573;23;20820;-81
2023/07/23 08:49:39;;;;;;;10.00;7.53;;;;;;;;;;6227233;23;20375;-80
2023/07/23 08:52:07;;;;;;;10.83;8.07;;;;;;;;;;6227116;23;20671;-81
2023/07/23 08:54:37;;;;;;;13.27;8.43;;;;;;;;;;6230859;23;20390;-80
2023/07/23 08:57:06;;;;;;;9.73;7.50;;;;;;;;;;6224010;23;20422;-79
2023/07/23 08:59:35;;;;;;;10.23;7.73;;;;;;;;;;6230637;23;20446;-80
2023/07/23 09:02:03;;;;;;;11.17;9.00;;;;;;;;;;6226815;23;20814;-80
2023/07/23 09:04:30;;;;;;;13.27;8.17;;;;;;;;;;6229323;23;20772;-80
2023/07/23 09:06:59;;;;;;;8.50;7.63;;;;;;;;;;6227004;23;20399;-81
2023/07/23 09:09:31;;;;;;;11.90;7.80;;;;;;;;;;6228598;23;20438;-81
2023/07/23 09:12:03;;;;;;;10.87;7.43;;;;;;;;;;6228999;23;20406;-80
2023/07/23 09:14:31;;;;;;;10.33;7.70;;;;;;;;;;6227222;23;20435;-80
2023/07/23 09:16:59;;;;;;;11.50;8.70;;;;;;;;;;6225455;23;20418;-81
2023/07/23 09:19:29;;;;;;;9.57;7.23;;;;;;;;;;6223346;23;21018;-80
2023/07/23 09:21:59;;;;;;;13.43;8.13;;;;;;;;;;6227770;23;20421;-80
2023/07/23 09:24:33;;;;;;;9.33;7.40;;;;;;;;;;6225516;23;20429;-80
2023/07/23 09:27:03;;;;;;;11.40;8.73;;;;;;;;;;6224941;23;20464;-80
2023/07/23 09:29:37;;;;;;;11.17;7.90;;;;;;;;;;6223638;23;20417;-81
2023/07/23 09:32:06;;;;;;;12.37;8.73;;;;;;;;;;6227834;23;20442;-80
2023/07/23 09:34:35;;;;;;;9.33;8.03;;;;;;;;;;6222691;23;20804;-81
2023/07/23 09:37:11;;;;;;;15.33;9.57;;;;;;;;;;6223927;23;20401;-80
2023/07/23 09:39:40;;;;;;;12.10;8.40;;;;;;;;;;6224725;23;20438;-80
2023/07/23 09:42:09;;;;;;;9.13;7.13;;;;;;;;;;6225614;23;20425;-81
2023/07/23 09:44:41;;;;;;;8.83;7.37;;;;;;;;;;6226035;23;20410;-81
2023/07/23 09:47:09;;;;;;;9.97;7.10;;;;;;;;;;6223756;23;20398;-79
2023/07/23 09:49:38;;;;;;;12.40;8.87;;;;;;;;;;6224567;23;20398;-80
2023/07/23 09:52:11;;;;;;;9.07;7.80;;;;;;;;;;6225096;23;20699;-80
2023/07/23 09:54:39;;;;;;;10.10;7.00;;;;;;;;;;6223019;23;20442;-79
2023/07/23 09:57:09;;;;;;;9.40;7.37;;;;;;;;;;6222801;23;20397;-81
2023/07/23 09:59:37;;;;;;;7.90;6.40;;;;;;;;;;6222311;23;20481;-80
2023/07/23 10:02:05;;;;;;;8.00;6.43;;;;;;;;;;6225112;23;20476;-82
2023/07/23 10:04:34;;;;;;;10.97;7.77;;;;;;;;;;6224862;23;20421;-82
2023/07/23 10:07:02;;;;;;;10.50;7.43;;;;;;;;;;6228138;23;20406;-79
2023/07/23 10:09:34;;;;;;;7.77;6.17;;;;;;;;;;6226897;23;20387;-80
2023/07/23 10:12:02;;;;;;;10.80;7.67;;;;;;;;;;6224710;23;20465;-80
2023/07/23 10:14:31;;;;;;;9.67;6.93;;;;;;;;;;6226604;23;20410;-80
2023/07/23 10:16:59;;;;;;;7.67;6.73;;;;;;;;;;6226866;23;20391;-79
2023/07/23 10:19:27;;;;;;;11.23;8.43;;;;;;;;;;6226692;23;20430;-79
2023/07/23 10:21:55;;;;;;;13.83;7.43;;;;;;;;;;6228256;23;20456;-79
2023/07/23 10:24:41;;;;;;;13.40;8.93;;;;;;;;;;6227212;23;20431;-79
2023/07/23 10:27:16;;;;;;;10.93;6.90;;;;;;;;;;6227163;23;20462;-81
2023/07/23 10:30:06;;;;;;;9.23;6.03;;;;;;;;;;6226574;23;20401;-81
2023/07/23 10:32:35;;;;;;;9.83;6.00;;;;;;;;;;6224461;23;20428;-79
2023/07/23 10:35:08;;;;;;;6.67;5.40;;;;;;;;;;6222341;23;20946;-80
2023/07/23 10:37:35;;;;;;;8.20;5.47;;;;;;;;;;6227539;23;20406;-80
2023/07/23 10:40:07;;;;;;;6.70;4.40;;;;;;;;;;6223519;23;20437;-79
2023/07/23 10:42:40;;;;;;;8.20;5.40;;;;;;;;;;6223660;23;20425;-82
2023/07/23 10:45:28;;;;;;;10.70;4.83;;;;;;;;;;6226116;23;20419;-82
2023/07/23 10:47:58;;;;;;;6.67;4.17;;;;;;;;;;6199470;23;20413;-80
2023/07/23 10:50:26;;;;;;;7.30;5.17;;;;;;;;;;6226223;23;20474;-83
2023/07/23 10:52:54;;;;;;;6.80;4.60;;;;;;;;;;6224928;23;20489;-82
2023/07/23 10:55:41;;;;;;;6.60;4.67;;;;;;;;;;6227058;23;20460;-83
2023/07/23 10:58:12;;;;;;;8.50;5.83;;;;;;;;;;6224141;23;20480;-80
2023/07/23 11:00:43;;;;;;;6.63;4.30;;;;;;;;;;6226340;23;20422;-79
2023/07/23 11:03:13;;;;;;;9.23;4.00;;;;;;;;;;6224520;23;20464;-81
2023/07/23 11:05:42;;;;;;;8.20;5.27;;;;;;;;;;6224686;23;20425;-79
2023/07/23 11:08:16;;;;;;;4.70;4.00;;;;;;;;;;6226800;23;20689;-81
2023/07/23 11:10:48;;;;;;;6.73;4.50;;;;;;;;;;6225390;23;20416;-81
2023/07/23 11:13:16;;;;;;;5.57;3.90;;;;;;;;;;6226924;23;20438;-80
2023/07/23 11:15:46;;;;;;;8.80;4.40;;;;;;;;;;6227910;23;20414;-79
2023/07/23 11:18:15;;;;;;;10.40;4.40;;;;;;;;;;6229385;23;20418;-80
2023/07/23 11:20:49;;;;;;;5.60;3.70;;;;;;;;;;6231045;23;20395;-80
2023/07/23 11:23:23;;;;;;;6.83;4.40;;;;;;;;;;6227543;23;20471;-79
2023/07/23 11:25:52;;;;;;;6.40;5.40;;;;;;;;;;6230643;23;20480;-80
2023/07/23 11:28:20;;;;;;;7.47;4.33;;;;;;;;;;6227229;23;20425;-79
2023/07/23 11:30:54;;;;;;;8.10;5.07;;;;;;;;;;6228189;23;20406;-79
2023/07/23 11:36:21;;;;;;;6.00;4.70;;;;;;;;;;6222390;23;20426;-79
2023/07/23 11:38:56;;;;;;;7.13;4.93;;;;;;;;;;6224001;23;20452;-79
2023/07/23 11:41:29;;;;;;;8.60;4.33;;;;;;;;;;6224259;23;21862;-78
2023/07/23 11:44:03;;;;;;;7.17;5.37;;;;;;;;;;6227417;23;20402;-81
2023/07/23 11:46:31;;;;;;;10.80;4.97;;;;;;;;;;6230314;23;21037;-80
2023/07/23 11:49:01;;;;;;;7.27;4.90;;;;;;;;;;6229774;23;20414;-79
2023/07/23 11:51:29;;;;;;;6.43;4.13;;;;;;;;;;6228430;23;20828;-80
2023/07/23 11:54:05;;;;;;;6.30;3.67;;;;;;;;;;6226723;23;20398;-80
2023/07/23 11:56:35;;;;;;;4.90;3.87;;;;;;;;;;6227299;23;20460;-81
2023/07/23 11:59:07;;;;;;;5.63;3.93;;;;;;;;;;6223192;23;20446;-80
2023/07/23 12:01:47;;;;;;;5.50;3.97;;;;;;;;;;6227736;23;20442;-81
2023/07/23 12:04:16;;;;;;;6.60;4.70;;;;;;;;;;6222610;23;20527;-82
2023/07/23 12:06:47;;;;;;;6.97;3.97;;;;;;;;;;6224694;23;20915;-78
2023/07/23 12:12:02;;;;;;;5.53;4.27;;;;;;;;;;6223266;23;20420;-77
2023/07/23 12:14:30;;;;;;;5.47;4.60;;;;;;;;;;6221918;23;20426;-78
2023/07/23 12:16:59;;;;;;;4.70;3.30;;;;;;;;;;6225727;23;20414;-77
2023/07/23 12:19:29;;;;;;;5.17;3.97;;;;;;;;;;6227880;23;20449;-77
2023/07/23 12:21:58;;;;;;;5.90;4.33;;;;;;;;;;6227818;23;20453;-78
2023/07/23 12:24:27;;;;;;;5.50;3.77;;;;;;;;;;6224167;23;20418;-79
2023/07/23 12:26:57;;;;;;;5.20;4.30;;;;;;;;;;6224325;23;20422;-78
2023/07/23 12:29:27;;;;;;;6.10;4.27;;;;;;;;;;6227168;23;20418;-78
2023/07/23 12:32:09;;;;;;;4.80;3.60;;;;;;;;;;6233627;23;20473;-79
2023/07/23 12:34:41;;;;;;;8.00;3.60;;;;;;;;;;6231119;23;20418;-78
2023/07/23 12:37:10;;;;;;;5.17;3.60;;;;;;;;;;6227815;23;20403;-79
2023/07/23 12:39:38;;;;;;;5.57;3.63;;;;;;;;;;6227773;23;20426;-78
2023/07/23 12:42:06;;;;;;;4.57;3.63;;;;;;;;;;6228155;23;20422;-79
2023/07/23 12:44:33;;;;;;;8.60;4.70;;;;;;;;;;6226387;23;20414;-79
2023/07/23 12:47:01;;;;;;;4.03;3.20;;;;;;;;;;6226729;23;20391;-79
2023/07/23 12:49:28;;;;;;;5.47;3.40;;;;;;;;;;6223391;23;20505;-77
2023/07/23 12:52:00;;;;;;;5.23;3.63;;;;;;;;;;6219910;23;20441;-77
2023/07/23 12:54:28;;;;;;;7.23;4.63;;;;;;;;;;6221270;23;20421;-78
2023/07/23 12:56:59;;;;;;;9.80;3.93;;;;;;;;;;6224334;23;20398;-77
2023/07/23 12:59:27;;;;;;;5.10;4.13;;;;;;;;;;6221875;23;20445;-77
2023/07/23 13:01:56;;;;;;;4.87;4.00;;;;;;;;;;6224430;23;20541;-78
2023/07/23 13:04:25;;;;;;;5.03;3.23;;;;;;;;;;6221353;23;20406;-78
2023/07/23 13:06:54;;;;;;;4.23;3.17;;;;;;;;;;6225836;23;20390;-78
2023/07/23 13:09:23;;;;;;;10.60;6.20;;;;;;;;;;6219380;23;21054;-79
2023/07/23 13:11:51;;;;;;;6.23;3.27;;;;;;;;;;6225756;23;20424;-78
2023/07/23 13:14:21;;;;;;;3.60;2.90;;;;;;;;;;6220488;23;20394;-77
2023/07/23 13:16:51;;;;;;;4.50;2.80;;;;;;;;;;6219842;23;20390;-79
2023/07/23 13:19:19;;;;;;;5.90;4.47;;;;;;;;;;6222963;23;20438;-78
2023/07/23 13:21:49;;;;;;;5.53;3.67;;;;;;;;;;6226018;23;20696;-78
2023/07/23 13:24:16;;;;;;;5.17;3.50;;;;;;;;;;6220250;23;20390;-78
2023/07/23 13:26:47;;;;;;;5.33;3.80;;;;;;;;;;6223384;23;20402;-78
2023/07/23 13:29:15;;;;;;;5.67;4.00;;;;;;;;;;6217746;23;20414;-78
2023/07/23 13:31:43;;;;;;;5.00;3.30;;;;;;;;;;6221470;23;20637;-79
2023/07/23 13:34:11;;;;;;;5.40;2.83;;;;;;;;;;6221386;23;20393;-79
2023/07/23 13:36:40;;;;;;;4.93;2.73;;;;;;;;;;6219600;23;20449;-79
2023/07/23 13:39:08;;;;;;;4.40;3.23;;;;;;;;;;6221048;23;20445;-79
2023/07/23 13:41:36;;;;;;;4.83;2.80;;;;;;;;;;6223589;23;20739;-80
2023/07/23 13:44:05;;;;;;;4.60;2.80;;;;;;;;;;6221138;23;20414;-81
2023/07/23 13:46:33;;;;;;;3.50;2.40;;;;;;;;;;6229546;23;20394;-79
2023/07/23 13:49:01;;;;;;;4.90;3.10;;;;;;;;;;6222566;23;20452;-77
2023/07/23 13:51:28;;;;;;;3.83;2.70;;;;;;;;;;6218418;23;20458;-78
2023/07/23 13:53:56;;;;;;;4.90;3.03;;;;;;;;;;6217963;23;20394;-78
2023/07/23 13:56:24;;;;;;;3.10;2.23;;;;;;;;;;6217683;23;20550;-78
2023/07/23 13:58:54;;;;;;;6.53;3.20;;;;;;;;;;6218458;23;20487;-77
2023/07/23 14:01:36;;;;;;;3.33;2.33;;;;;;;;;;6225754;23;20394;-78
2023/07/23 14:04:03;;;;;;;3.03;2.27;;;;;;;;;;6195707;23;20403;-78
2023/07/23 14:06:31;;;;;;;4.10;2.80;;;;;;;;;;6197043;23;20442;-78
2023/07/23 14:09:04;;;;;;;4.77;2.53;;;;;;;;;;6194995;23;20401;-78
2023/07/23 14:11:32;;;;;;;4.33;3.30;;;;;;;;;;6195962;23;20529;-78
2023/07/23 14:13:59;;;;;;;4.10;2.80;;;;;;;;;;6193788;23;20372;-77
2023/07/23 14:16:28;;;;;;;5.30;3.17;;;;;;;;;;6188954;23;20780;-77
2023/07/23 14:18:56;;;;;;;6.20;3.23;;;;;;;;;;6192244;23;20411;-78
2023/07/23 14:21:24;;;;;;;8.73;3.43;;;;;;;;;;6194385;23;20426;-78
2023/07/23 14:23:51;;;;;;;4.57;2.53;;;;;;;;;;6216605;23;20935;-78
2023/07/23 14:26:20;;;;;;;7.17;2.90;;;;;;;;;;6227210;23;20501;-78
2023/07/23 14:28:48;;;;;;;3.63;2.50;;;;;;;;;;6227164;23;20414;-79
2023/07/23 14:31:16;;;;;;;3.43;2.43;;;;;;;;;;6226380;23;20391;-79
2023/07/23 14:33:54;;;;;;;4.40;2.57;;;;;;;;;;6226852;23;20405;-77
2023/07/23 14:36:22;;;;;;;4.07;2.53;;;;;;;;;;6223559;23;20496;-78
2023/07/23 14:38:51;;;;;;;4.80;2.60;;;;;;;;;;6224138;23;20417;-78
2023/07/23 14:41:19;;;;;;;3.70;2.40;;;;;;;;;;6219722;23;20446;-78
2023/07/23 14:43:49;;;;;;;3.77;2.00;;;;;;;;;;6221521;23;20601;-78
2023/07/23 14:46:19;;;;;;;3.83;2.50;;;;;;;;;;6231061;23;20426;-80
2023/07/23 14:48:51;;;;;;;4.67;2.83;;;;;;;;;;6222917;23;20840;-78
2023/07/23 14:51:24;;;;;;;3.40;2.47;;;;;;;;;;6226583;23;20445;-78
2023/07/23 14:53:56;;;;;;;2.93;2.27;;;;;;;;;;6223494;23;20493;-78
2023/07/23 14:56:24;;;;;;;3.40;2.43;;;;;;;;;;6224879;23;20494;-79